createdAt,value
2022-10-09T00:01:51.450Z,43.48
2022-10-09T00:04:18.463Z,43.14
2022-10-09T00:06:45.726Z,43.31
2022-10-09T00:09:12.912Z,43.64
2022-10-09T00:11:40.228Z,43.76
2022-10-09T00:14:07.906Z,43.50
2022-10-09T00:16:36.672Z,43.70
2022-10-09T00:19:04.082Z,43.63
2022-10-09T00:21:34.041Z,43.95
2022-10-09T00:26:54.625Z,44.20
2022-10-09T00:29:21.706Z,43.78
2022-10-09T00:31:51.367Z,44.16
2022-10-09T00:34:18.525Z,44.23
2022-10-09T00:36:45.565Z,43.84
2022-10-09T00:39:12.606Z,44.02
2022-10-09T00:41:39.809Z,44.22
2022-10-09T00:44:40.108Z,44.00
2022-10-09T00:47:18.769Z,43.92
2022-10-09T00:49:48.367Z,43.80
2022-10-09T00:52:16.687Z,44.24
2022-10-09T00:54:44.800Z,43.67
2022-10-09T00:57:12.642Z,43.77
2022-10-09T00:59:40.685Z,43.95
2022-10-09T01:02:08.135Z,43.75
2022-10-09T01:04:36.864Z,44.61
2022-10-09T01:07:27.882Z,44.52
2022-10-09T01:10:02.128Z,44.36
2022-10-09T01:12:46.630Z,44.54
2022-10-09T01:15:20.160Z,44.46
2022-10-09T01:18:00.453Z,44.82
2022-10-09T01:20:41.749Z,44.49
2022-10-09T01:23:34.066Z,44.60
2022-10-09T01:29:10.304Z,44.71
2022-10-09T01:31:42.784Z,44.47
2022-10-09T01:34:14.021Z,44.34
2022-10-09T01:36:44.103Z,44.49
2022-10-09T01:39:18.125Z,44.81
2022-10-09T01:41:48.221Z,44.49
2022-10-09T01:44:18.485Z,44.36
2022-10-09T01:46:46.881Z,44.61
2022-10-09T01:49:29.203Z,44.23
2022-10-09T01:52:05.655Z,44.06
2022-10-09T01:54:43.002Z,44.04
2022-10-09T01:57:14.221Z,44.04
2022-10-09T01:59:47.562Z,44.24
2022-10-09T02:02:15.797Z,44.33
2022-10-09T02:04:44.697Z,44.63
2022-10-09T02:07:11.902Z,44.54
2022-10-09T02:09:40.965Z,44.34
2022-10-09T02:12:12.896Z,44.04
2022-10-09T02:14:40.215Z,44.36
2022-10-09T02:17:17.374Z,44.41
2022-10-09T02:19:50.874Z,44.40
2022-10-09T02:22:20.357Z,45.08
2022-10-09T02:24:48.274Z,44.83
2022-10-09T02:27:16.553Z,45.19
2022-10-09T02:29:46.174Z,44.94
2022-10-09T02:32:16.181Z,43.94
2022-10-09T02:34:43.517Z,43.83
2022-10-09T02:37:10.933Z,44.04
2022-10-09T02:39:38.294Z,44.44
2022-10-09T02:42:05.596Z,44.52
2022-10-09T02:44:32.714Z,44.32
2022-10-09T02:46:59.753Z,54.26
2022-10-09T02:49:28.360Z,48.85
2022-10-09T02:51:55.374Z,51.05
2022-10-09T02:54:22.413Z,46.79
2022-10-09T02:56:49.494Z,47.89
2022-10-09T02:59:16.593Z,47.34
2022-10-09T03:01:43.717Z,51.29
2022-10-09T03:04:10.892Z,49.66
2022-10-09T03:06:39.336Z,48.75
2022-10-09T03:09:06.453Z,50.20
2022-10-09T03:11:33.514Z,51.29
2022-10-09T03:14:00.600Z,50.52
2022-10-09T03:16:28.067Z,48.61
2022-10-09T03:18:55.655Z,49.52
2022-10-09T03:21:25.715Z,48.47
2022-10-09T03:23:55.856Z,47.39
2022-10-09T03:26:25.214Z,47.74
2022-10-09T03:28:54.216Z,47.02
2022-10-09T03:36:37.994Z,46.91
2022-10-09T03:39:06.469Z,47.30
2022-10-09T03:41:33.557Z,47.12
2022-10-09T03:44:00.674Z,46.75
2022-10-09T03:46:28.138Z,46.27
2022-10-09T03:48:55.255Z,46.78
2022-10-09T03:51:22.334Z,46.50
2022-10-09T03:53:49.393Z,46.18
2022-10-09T03:56:17.914Z,45.96
2022-10-09T03:58:44.994Z,46.44
2022-10-09T04:01:12.193Z,46.30
2022-10-09T04:03:39.354Z,45.73
2022-10-09T04:06:06.834Z,45.68
2022-10-09T04:08:35.136Z,45.58
2022-10-09T04:11:02.781Z,45.91
2022-10-09T04:15:58.366Z,45.93
2022-10-09T04:18:25.754Z,46.08
2022-10-09T04:20:55.016Z,45.08
2022-10-09T04:23:25.088Z,45.71
2022-10-09T04:25:54.156Z,45.78
2022-10-09T04:28:21.626Z,45.23
2022-10-09T04:30:50.234Z,45.02
2022-10-09T04:33:17.338Z,45.00
2022-10-09T04:35:45.310Z,45.20
2022-10-09T04:38:12.895Z,45.47
2022-10-09T04:40:40.595Z,45.65
2022-10-09T04:43:07.675Z,45.20
2022-10-09T04:45:39.437Z,45.07
2022-10-09T04:48:07.973Z,45.04
2022-10-09T04:50:38.215Z,44.30
2022-10-09T04:53:05.357Z,45.49
2022-10-09T04:55:32.396Z,44.63
2022-10-09T04:57:59.415Z,45.51
2022-10-09T05:00:26.454Z,45.18
2022-10-09T05:02:53.494Z,45.50
2022-10-09T05:05:22.015Z,45.03
2022-10-09T05:07:49.096Z,45.64
2022-10-09T05:10:16.215Z,45.10
2022-10-09T05:12:43.295Z,45.17
2022-10-09T05:15:10.758Z,44.57
2022-10-09T05:17:37.804Z,44.76
2022-10-09T05:20:05.473Z,45.50
2022-10-09T05:22:33.954Z,45.15
2022-10-09T05:25:00.975Z,44.81
2022-10-09T05:27:28.054Z,45.04
2022-10-09T05:29:55.074Z,45.29
2022-10-09T05:32:22.133Z,44.87
2022-10-09T05:34:49.196Z,44.91
2022-10-09T05:37:16.234Z,44.54
2022-10-09T05:39:44.728Z,45.35
2022-10-09T05:42:11.793Z,45.20
2022-10-09T05:44:38.856Z,45.59
2022-10-09T05:47:05.895Z,45.13
2022-10-09T05:49:32.937Z,44.90
2022-10-09T05:52:00.040Z,44.57
2022-10-09T05:54:27.315Z,44.50
2022-10-09T05:56:55.714Z,44.87
2022-10-09T05:59:22.734Z,44.53
2022-10-09T06:01:51.610Z,44.14
2022-10-09T06:04:21.196Z,44.52
2022-10-09T06:06:49.354Z,44.85
2022-10-09T06:09:18.766Z,44.89
2022-10-09T06:11:45.794Z,44.07
2022-10-09T06:14:14.435Z,44.46
2022-10-09T06:16:43.683Z,44.33
2022-10-09T06:19:13.115Z,44.66
2022-10-09T06:21:40.535Z,44.74
2022-10-09T06:24:08.355Z,45.04
2022-10-09T06:26:35.446Z,44.54
2022-10-09T06:29:03.222Z,44.28
2022-10-09T06:31:33.715Z,44.15
2022-10-09T06:34:02.455Z,44.78
2022-10-09T06:36:31.057Z,44.42
2022-10-09T06:39:00.195Z,44.13
2022-10-09T06:41:28.714Z,44.10
2022-10-09T06:43:57.855Z,44.88
2022-10-09T06:46:27.332Z,43.86
2022-10-09T06:48:56.595Z,43.85
2022-10-09T06:51:24.118Z,44.06
2022-10-09T06:53:53.714Z,44.59
2022-10-09T06:56:23.456Z,44.95
2022-10-09T06:58:50.816Z,44.93
2022-10-09T07:01:20.249Z,44.77
2022-10-09T07:03:52.417Z,44.84
2022-10-09T07:06:23.074Z,44.59
2022-10-09T07:08:53.537Z,44.76
2022-10-09T07:11:23.615Z,45.17
2022-10-09T07:13:54.074Z,45.31
2022-10-09T07:16:23.149Z,44.92
2022-10-09T07:18:50.894Z,44.96
2022-10-09T07:21:17.955Z,45.24
2022-10-09T07:23:46.743Z,44.74
2022-10-09T07:26:17.299Z,44.07
2022-10-09T07:28:45.590Z,44.23
2022-10-09T07:31:12.897Z,43.51
2022-10-09T07:33:40.927Z,43.57
2022-10-09T07:36:09.874Z,44.05
2022-10-09T07:38:37.914Z,43.90
2022-10-09T07:41:08.995Z,44.29
2022-10-09T07:43:37.534Z,44.08
2022-10-09T07:46:07.373Z,43.92
2022-10-09T07:48:35.418Z,44.70
2022-10-09T07:51:08.906Z,44.66
2022-10-09T07:53:36.268Z,44.08
2022-10-09T07:56:04.337Z,44.61
2022-10-09T07:58:33.175Z,44.56
2022-10-09T08:01:04.614Z,44.96
2022-10-09T08:03:31.794Z,44.89
2022-10-09T08:05:58.878Z,44.58
2022-10-09T08:08:26.159Z,44.65
2022-10-09T08:10:53.315Z,43.97
2022-10-09T08:13:20.455Z,44.30
2022-10-09T08:15:48.982Z,44.30
2022-10-09T08:18:16.600Z,44.44
2022-10-09T08:20:43.974Z,44.52
2022-10-09T08:23:11.014Z,44.18
2022-10-09T08:25:38.153Z,44.44
2022-10-09T08:28:05.856Z,44.08
2022-10-09T08:30:32.955Z,43.99
2022-10-09T08:33:01.435Z,44.06
2022-10-09T08:35:33.725Z,44.16
2022-10-09T08:38:01.633Z,44.29
2022-10-09T08:40:42.374Z,44.40
2022-10-09T08:43:17.434Z,44.20
2022-10-09T08:45:47.813Z,44.31
2022-10-09T08:48:22.296Z,44.57
2022-10-09T08:50:53.775Z,45.04
2022-10-09T08:53:36.893Z,44.92
2022-10-09T08:56:06.376Z,44.80
2022-10-09T08:58:36.775Z,44.59
2022-10-09T09:01:12.707Z,44.81
2022-10-09T09:04:06.215Z,44.84
2022-10-09T09:06:42.780Z,44.56
2022-10-09T09:09:19.736Z,44.17
2022-10-09T09:11:53.635Z,44.99
2022-10-09T09:14:39.874Z,44.33
2022-10-09T09:17:22.036Z,44.84
2022-10-09T09:20:06.295Z,45.51
2022-10-09T09:22:36.335Z,44.33
2022-10-09T09:25:21.154Z,45.39
2022-10-09T09:27:49.478Z,45.19
2022-10-09T09:30:22.934Z,45.12
2022-10-09T09:32:59.759Z,45.21
2022-10-09T09:35:39.854Z,45.24
2022-10-09T09:38:07.477Z,44.93
2022-10-09T09:40:37.325Z,44.96
2022-10-09T09:43:16.594Z,44.77
2022-10-09T09:45:45.500Z,44.91
2022-10-09T09:48:18.838Z,44.40
2022-10-09T09:51:10.220Z,45.06
2022-10-09T09:53:44.058Z,44.71
2022-10-09T09:56:11.656Z,44.68
2022-10-09T09:58:44.355Z,45.32
2022-10-09T10:01:22.138Z,44.36
2022-10-09T10:03:51.195Z,44.93
2022-10-09T10:06:24.423Z,45.36
2022-10-09T10:09:02.842Z,45.17
2022-10-09T10:11:33.357Z,45.21
2022-10-09T10:14:07.176Z,44.39
2022-10-09T10:16:38.585Z,43.52
2022-10-09T10:19:06.247Z,44.26
2022-10-09T10:21:47.798Z,43.56
2022-10-09T10:24:23.055Z,44.43
2022-10-09T10:26:56.596Z,44.13
2022-10-09T10:29:32.520Z,43.83
2022-10-09T10:32:06.835Z,44.43
2022-10-09T10:34:43.234Z,44.14
2022-10-09T10:37:28.096Z,44.20
2022-10-09T10:40:03.254Z,43.95
2022-10-09T10:42:42.218Z,44.44
2022-10-09T10:45:16.235Z,43.79
2022-10-09T10:47:51.365Z,44.02
2022-10-09T10:50:21.546Z,43.77
2022-10-09T10:53:03.747Z,43.58
2022-10-09T10:55:49.065Z,43.39
2022-10-09T10:58:26.828Z,42.67
2022-10-09T11:01:20.332Z,43.67
2022-10-09T11:04:28.329Z,42.64
2022-10-09T11:07:08.931Z,43.44
2022-10-09T11:09:52.862Z,42.45
2022-10-09T11:12:47.888Z,42.08
2022-10-09T11:15:26.847Z,42.35
2022-10-09T11:18:06.509Z,41.93
2022-10-09T11:20:59.588Z,42.69
2022-10-09T11:23:39.988Z,42.10
2022-10-09T11:26:20.524Z,41.27
2022-10-09T11:28:53.675Z,40.48
2022-10-09T11:31:29.038Z,42.09
2022-10-09T11:34:03.510Z,41.19
2022-10-09T11:36:38.754Z,41.27
2022-10-09T11:39:12.944Z,40.00
2022-10-09T11:41:44.498Z,39.61
2022-10-09T11:44:35.760Z,41.07
2022-10-09T11:47:12.879Z,41.18
2022-10-09T11:50:00.183Z,42.07
2022-10-09T11:52:41.739Z,41.48
2022-10-09T11:55:17.899Z,41.13
2022-10-09T11:57:46.626Z,40.92
2022-10-09T12:00:15.124Z,38.57
2022-10-09T12:02:43.927Z,42.00
2022-10-09T12:05:28.031Z,42.10
2022-10-09T12:08:06.331Z,42.26
2022-10-09T12:10:35.430Z,42.67
2022-10-09T12:13:07.528Z,42.31
2022-10-09T12:15:46.009Z,41.00
2022-10-09T12:18:23.411Z,43.08
2022-10-09T12:20:53.249Z,42.46
2022-10-09T12:23:27.386Z,42.21
2022-10-09T12:25:56.929Z,42.50
2022-10-09T12:28:33.912Z,41.78
2022-10-09T12:31:05.535Z,43.88
2022-10-09T12:33:40.288Z,41.77
2022-10-09T12:36:14.178Z,42.55
2022-10-09T12:38:42.511Z,42.72
2022-10-09T12:41:20.420Z,42.37
2022-10-09T12:43:51.651Z,42.96
2022-10-09T12:46:29.053Z,42.55
2022-10-09T12:48:57.542Z,42.56
2022-10-09T12:51:26.975Z,44.41
2022-10-09T12:53:54.995Z,43.66
2022-10-09T12:56:28.452Z,43.87
2022-10-09T12:58:59.409Z,43.25
2022-10-09T13:01:27.534Z,44.41
2022-10-09T13:03:57.468Z,44.48
2022-10-09T13:06:27.645Z,44.11
2022-10-09T13:08:59.067Z,44.02
2022-10-09T13:11:35.369Z,45.05
2022-10-09T13:14:05.091Z,41.44
2022-10-09T13:16:44.136Z,45.02
2022-10-09T13:19:25.607Z,44.52
2022-10-09T13:22:07.627Z,44.54
2022-10-09T13:24:36.431Z,44.44
2022-10-09T13:27:04.967Z,44.59
2022-10-09T13:29:33.927Z,44.90
2022-10-09T13:32:01.001Z,44.65
2022-10-09T13:34:28.326Z,44.84
2022-10-09T13:36:56.066Z,45.00
2022-10-09T13:39:23.230Z,44.23
2022-10-09T13:41:52.167Z,44.93
2022-10-09T13:44:19.267Z,44.23
2022-10-09T13:46:47.747Z,43.81
2022-10-09T13:49:14.847Z,44.16
2022-10-09T13:51:41.926Z,44.57
2022-10-09T13:54:09.110Z,44.77
2022-10-09T13:56:36.245Z,45.43
2022-10-09T13:59:03.390Z,45.23
2022-10-09T14:01:30.716Z,45.68
2022-10-09T14:03:59.326Z,45.13
2022-10-09T14:06:26.414Z,45.40
2022-10-09T14:08:53.536Z,45.35
2022-10-09T14:11:20.687Z,44.39
2022-10-09T14:13:47.705Z,44.43
2022-10-09T14:16:14.866Z,44.98
2022-10-09T14:18:41.946Z,44.63
2022-10-09T14:21:15.001Z,44.75
2022-10-09T14:23:43.608Z,45.15
2022-10-09T14:26:10.751Z,45.58
2022-10-09T14:28:38.075Z,45.59
2022-10-09T14:31:06.448Z,45.83
2022-10-09T14:33:33.686Z,45.19
2022-10-09T14:36:06.127Z,45.37
2022-10-09T14:38:37.486Z,45.92
2022-10-09T14:41:05.064Z,45.28
2022-10-09T14:43:32.269Z,45.83
2022-10-09T14:46:03.505Z,45.56
2022-10-09T14:48:30.607Z,45.79
2022-10-09T14:51:03.427Z,46.22
2022-10-09T14:53:30.506Z,44.64
2022-10-09T14:56:01.726Z,43.82
2022-10-09T14:58:29.767Z,43.50
2022-10-09T15:00:57.450Z,44.69
2022-10-09T15:03:25.525Z,44.95
2022-10-09T15:05:56.346Z,45.24
2022-10-09T15:08:23.427Z,44.08
2022-10-09T15:10:50.486Z,45.29
2022-10-09T15:13:19.647Z,44.93
2022-10-09T15:15:46.926Z,47.31
2022-10-09T15:18:14.367Z,43.54
2022-10-09T15:20:44.747Z,44.21
2022-10-09T15:23:12.488Z,44.59
2022-10-09T15:25:39.545Z,45.96
2022-10-09T15:28:07.493Z,45.23
2022-10-09T15:30:36.127Z,45.67
2022-10-09T15:33:03.329Z,45.50
2022-10-09T15:35:32.547Z,44.47
2022-10-09T15:37:59.566Z,46.00
2022-10-09T15:40:26.765Z,44.99
2022-10-09T15:42:53.850Z,44.88
2022-10-09T15:45:20.906Z,45.24
2022-10-09T15:47:52.130Z,45.62
2022-10-09T15:50:19.212Z,45.43
2022-10-09T15:52:46.457Z,45.43
2022-10-09T15:55:13.727Z,45.85
2022-10-09T15:57:40.786Z,45.33
2022-10-09T16:00:09.126Z,45.88
2022-10-09T16:02:36.188Z,46.83
2022-10-09T16:05:05.408Z,46.77
2022-10-09T16:07:32.525Z,46.16
2022-10-09T16:09:59.526Z,46.76
2022-10-09T16:12:26.706Z,46.10
2022-10-09T16:14:53.746Z,46.89
2022-10-09T16:17:20.811Z,46.21
2022-10-09T16:19:48.179Z,45.70
2022-10-09T16:22:16.745Z,45.71
2022-10-09T16:24:44.047Z,45.95
2022-10-09T16:27:11.126Z,46.58
2022-10-09T16:29:38.148Z,46.41
2022-10-09T16:32:05.265Z,45.72
2022-10-09T16:34:32.309Z,46.20
2022-10-09T16:36:59.285Z,46.40
2022-10-09T16:39:28.086Z,47.23
2022-10-09T16:41:55.187Z,47.40
2022-10-09T16:44:22.228Z,46.98
2022-10-09T16:46:49.286Z,47.49
2022-10-09T16:49:21.282Z,47.09
2022-10-09T16:51:51.347Z,47.52
2022-10-09T16:54:18.429Z,47.71
2022-10-09T16:56:47.351Z,47.65
2022-10-09T16:59:14.488Z,46.77
2022-10-09T17:01:41.809Z,47.66
2022-10-09T17:04:08.845Z,47.39
2022-10-09T17:06:36.126Z,47.34
2022-10-09T17:09:12.583Z,46.85
2022-10-09T17:11:40.889Z,47.05
2022-10-09T17:14:10.128Z,47.17
2022-10-09T17:16:39.947Z,47.19
2022-10-09T17:19:07.249Z,46.93
2022-10-09T17:21:34.822Z,47.54
2022-10-09T17:24:04.788Z,47.96
2022-10-09T17:26:32.225Z,47.44
2022-10-09T17:28:59.777Z,47.80
2022-10-09T17:31:29.913Z,47.31
2022-10-09T17:33:59.868Z,47.79
2022-10-09T17:36:28.905Z,47.47
2022-10-09T17:38:56.306Z,47.57
2022-10-09T17:41:25.007Z,47.41
2022-10-09T17:43:53.950Z,47.45
2022-10-09T17:46:22.265Z,47.28
2022-10-09T17:48:50.882Z,47.42
2022-10-09T17:51:20.469Z,47.28
2022-10-09T17:53:48.173Z,47.21
2022-10-09T17:56:15.359Z,47.34
2022-10-09T17:58:42.387Z,46.94
2022-10-09T18:01:11.407Z,46.92
2022-10-09T18:03:38.646Z,47.07
2022-10-09T18:06:09.447Z,47.04
2022-10-09T18:08:36.846Z,47.44
2022-10-09T18:11:06.786Z,47.19
2022-10-09T18:13:34.926Z,47.34
2022-10-09T18:16:05.469Z,47.69
2022-10-09T18:18:32.688Z,47.73
2022-10-09T18:21:03.225Z,47.61
2022-10-09T18:23:32.568Z,48.00
2022-10-09T18:25:59.785Z,47.66
2022-10-09T18:30:55.928Z,48.01
2022-10-09T18:33:23.227Z,47.70
2022-10-09T18:35:50.345Z,47.93
2022-10-09T18:38:17.481Z,48.42
2022-10-09T18:40:46.237Z,48.44
2022-10-09T18:43:13.508Z,47.76
2022-10-09T18:45:45.707Z,48.54
2022-10-09T18:48:14.025Z,48.46
2022-10-09T18:50:42.466Z,47.85
2022-10-09T18:53:10.707Z,47.90
2022-10-09T18:55:38.868Z,48.40
2022-10-09T18:58:07.486Z,48.20
2022-10-09T19:00:36.538Z,48.22
2022-10-09T19:03:04.105Z,48.25
2022-10-09T19:05:31.248Z,48.42
2022-10-09T19:07:58.307Z,48.13
2022-10-09T19:10:25.626Z,48.51
2022-10-09T19:12:52.725Z,48.33
2022-10-09T19:15:21.906Z,48.73
2022-10-09T19:17:49.248Z,48.98
2022-10-09T19:20:16.586Z,48.22
2022-10-09T19:22:43.726Z,48.83
2022-10-09T19:25:10.987Z,48.48
2022-10-09T19:27:38.065Z,48.69
2022-10-09T19:30:06.285Z,48.85
2022-10-09T19:32:34.945Z,48.98
2022-10-09T19:35:02.056Z,48.67
2022-10-09T19:37:29.977Z,48.91
2022-10-09T19:39:57.629Z,49.03
2022-10-09T19:42:24.693Z,49.13
2022-10-09T19:44:51.972Z,48.39
2022-10-09T19:47:19.178Z,48.50
2022-10-09T19:49:47.647Z,48.51
2022-10-09T19:52:14.786Z,48.53
2022-10-09T19:54:41.949Z,48.56
2022-10-09T19:57:09.027Z,48.90
2022-10-09T19:59:36.165Z,48.79
2022-10-09T20:02:03.387Z,48.50
2022-10-09T20:04:30.447Z,48.91
2022-10-09T20:06:59.689Z,48.69
2022-10-09T20:09:27.548Z,48.52
2022-10-09T20:11:54.689Z,48.83
2022-10-09T20:14:21.868Z,48.77
2022-10-09T20:16:49.008Z,48.92
2022-10-09T20:19:16.246Z,49.03
2022-10-09T20:21:43.368Z,48.63
2022-10-09T20:24:11.908Z,48.37
2022-10-09T20:26:42.933Z,48.87
2022-10-09T20:29:10.528Z,48.78
2022-10-09T20:31:37.729Z,48.54
2022-10-09T20:34:05.028Z,48.96
2022-10-09T20:36:34.707Z,48.41
2022-10-09T20:39:04.849Z,48.50
2022-10-09T20:41:33.790Z,48.51
2022-10-09T20:44:02.590Z,48.90
2022-10-09T20:46:32.908Z,48.85
2022-10-09T20:49:01.887Z,48.69
2022-10-09T20:51:28.994Z,48.90
2022-10-09T20:53:58.570Z,48.99
2022-10-09T20:56:27.969Z,48.41
2022-10-09T20:58:57.368Z,48.74
2022-10-09T21:01:25.578Z,48.72
2022-10-09T21:03:52.748Z,48.87
2022-10-09T21:06:22.410Z,49.01
2022-10-09T21:08:50.328Z,48.84
2022-10-09T21:11:19.067Z,49.03
2022-10-09T21:13:47.736Z,49.30
2022-10-09T21:16:19.026Z,49.18
2022-10-09T21:18:46.645Z,49.20
2022-10-09T21:21:15.708Z,49.29
2022-10-09T21:23:44.187Z,49.30
2022-10-09T21:26:13.726Z,48.85
2022-10-09T21:28:40.975Z,49.14
2022-10-09T21:31:09.407Z,49.00
2022-10-09T21:33:38.505Z,49.14
2022-10-09T21:36:10.687Z,48.97
2022-10-09T21:38:37.789Z,49.18
2022-10-09T21:41:05.287Z,49.21
2022-10-09T21:43:32.387Z,49.45
2022-10-09T21:45:59.526Z,49.35
2022-10-09T21:48:26.708Z,49.46
2022-10-09T21:50:55.227Z,49.65
2022-10-09T21:53:22.305Z,49.35
2022-10-09T21:55:49.388Z,49.46
2022-10-09T21:58:16.388Z,49.38
2022-10-09T22:00:43.425Z,49.51
2022-10-09T22:03:10.487Z,49.54
2022-10-09T22:05:39.687Z,49.60
2022-10-09T22:08:10.173Z,49.55
2022-10-09T22:10:37.268Z,49.88
2022-10-09T22:13:04.407Z,49.76
2022-10-09T22:15:31.425Z,49.61
2022-10-09T22:17:58.588Z,49.67
2022-10-09T22:20:26.053Z,49.72
2022-10-09T22:22:53.344Z,49.84
2022-10-09T22:25:22.118Z,49.55
2022-10-09T22:27:49.187Z,49.63
2022-10-09T22:30:16.750Z,49.60
2022-10-09T22:32:43.928Z,49.34
2022-10-09T22:35:10.969Z,49.38
2022-10-09T22:37:38.043Z,49.62
2022-10-09T22:40:06.158Z,49.41
2022-10-09T22:42:35.388Z,49.28
2022-10-09T22:45:02.832Z,49.37
2022-10-09T22:47:29.877Z,49.59
2022-10-09T22:49:56.926Z,49.51
2022-10-09T22:52:24.268Z,49.17
2022-10-09T22:54:51.297Z,49.46
2022-10-09T22:57:18.806Z,49.48
2022-10-09T22:59:47.526Z,49.00
2022-10-09T23:02:14.726Z,49.06
2022-10-09T23:04:41.827Z,49.27
2022-10-09T23:07:09.886Z,49.37
2022-10-09T23:09:36.909Z,49.32
2022-10-09T23:12:04.295Z,49.54
2022-10-09T23:14:31.367Z,49.81
2022-10-09T23:16:59.838Z,49.67
2022-10-09T23:19:26.923Z,49.25
2022-10-09T23:21:53.877Z,49.38
2022-10-09T23:24:20.919Z,49.54
2022-10-09T23:26:51.526Z,49.10
2022-10-09T23:29:20.426Z,48.85
2022-10-09T23:31:47.709Z,48.95
2022-10-09T23:34:16.207Z,49.05
2022-10-09T23:36:43.347Z,49.22
2022-10-09T23:39:10.647Z,48.97
2022-10-09T23:41:38.566Z,49.16
2022-10-09T23:44:05.783Z,49.26
2022-10-09T23:46:33.087Z,49.55
2022-10-09T23:49:00.330Z,49.62
2022-10-09T23:51:29.347Z,49.58
2022-10-09T23:53:57.565Z,49.68
2022-10-09T23:56:27.066Z,49.80
2022-10-09T23:58:55.670Z,50.03
